Time;durP1;ratioP1;P1;durP2;ratioP2;P2;SDS_P1;SDS_P2;PMS_P1;PMS_P2;Temp;Humidity;BMP_temperature;BMP_pressure;BME280_temperature;BME280_humidity;BME280_pressure;Samples;Min_cycle;Max_cycle;Signal;HPM_P1;HPM_P2
2021/09/13 00:03:41;;;;;;;1999.90;999.90;;;;;;;18.04;78.33;101237.69;15768983;28;20108;-60
2021/09/13 00:11:16;;;;;;;1999.90;999.90;;;;;;;17.96;78.13;101242.34;15793454;28;20493;-60
2021/09/13 00:18:48;;;;;;;1999.90;999.90;;;;;;;17.80;78.35;101236.75;15762881;28;20131;-60
2021/09/13 00:26:23;;;;;;;1999.90;999.90;;;;;;;17.73;78.50;101235.81;15773273;28;20041;-62
2021/09/13 00:33:55;;;;;;;1999.90;999.90;;;;;;;17.68;78.28;101241.69;15772591;28;20040;-61
2021/09/13 00:41:31;;;;;;;1999.90;999.90;;;;;;;17.58;78.06;101249.53;15756986;28;20123;-58
2021/09/13 00:49:04;;;;;;;1999.90;999.90;;;;;;;17.50;77.92;101239.25;15745386;28;20040;-59
2021/09/13 00:56:42;;;;;;;1999.90;999.90;;;;;;;17.40;78.13;101247.47;15796148;28;20508;-60
2021/09/13 01:04:14;;;;;;;1999.90;999.90;;;;;;;17.36;77.91;101233.31;15771917;28;20486;-61
2021/09/13 01:11:48;;;;;;;1999.90;999.90;;;;;;;17.20;78.63;101238.97;15771575;28;20097;-60
2021/09/13 01:19:20;;;;;;;1999.90;999.90;;;;;;;17.17;78.81;101234.06;15791954;28;20052;-61
2021/09/13 01:26:59;;;;;;;1999.90;999.90;;;;;;;17.28;77.80;101234.31;15805408;28;20101;-61
2021/09/13 01:34:31;;;;;;;1999.90;999.90;;;;;;;17.12;78.42;101233.53;15783366;28;20494;-60
2021/09/13 01:42:05;;;;;;;1999.90;999.90;;;;;;;17.12;77.98;101236.34;15772254;28;20040;-60
2021/09/13 01:49:38;;;;;;;1999.90;999.90;;;;;;;16.98;78.35;101237.59;15785537;28;20473;-60
2021/09/13 01:57:13;;;;;;;1999.90;999.90;;;;;;;17.05;78.56;101247.44;15758835;28;20055;-61
2021/09/13 02:04:45;;;;;;;1999.90;999.90;;;;;;;16.90;79.08;101247.09;15771140;28;20044;-60
2021/09/13 02:12:21;;;;;;;1999.90;999.90;;;;;;;16.85;78.93;101258.63;15789147;28;20401;-59
2021/09/13 02:19:55;;;;;;;1999.90;999.90;;;;;;;16.73;79.05;101267.97;15777980;28;20398;-60
2021/09/13 02:27:29;;;;;;;1999.90;999.90;;;;;;;16.72;78.65;101255.06;15784926;28;20041;-60
2021/09/13 02:35:05;;;;;;;1999.90;999.90;;;;;;;16.68;78.33;101256.16;15763717;28;20102;-60
2021/09/13 02:42:39;;;;;;;1999.90;999.90;;;;;;;16.56;78.97;101262.63;15754884;28;20045;-60
2021/09/13 02:50:12;;;;;;;1999.90;999.90;;;;;;;16.54;78.38;101250.91;15777505;28;20051;-60
2021/09/13 02:57:46;;;;;;;1999.90;999.90;;;;;;;16.44;79.18;101251.44;15793714;28;20131;-60
2021/09/13 03:05:19;;;;;;;1999.90;999.90;;;;;;;16.49;78.45;101259.63;15768800;28;20060;-60
2021/09/13 03:12:54;;;;;;;1999.90;999.90;;;;;;;16.40;78.53;101254.16;15746142;28;20083;-58
2021/09/13 03:20:27;;;;;;;1999.90;999.90;;;;;;;16.37;78.13;101257.69;15779589;28;20119;-61
2021/09/13 03:28:01;;;;;;;1999.90;999.90;;;;;;;16.31;78.32;101255.50;15769407;28;20040;-61
2021/09/13 03:35:38;;;;;;;1999.90;999.90;;;;;;;16.16;78.81;101272.00;15729542;28;20101;-60
2021/09/13 03:43:12;;;;;;;1999.90;999.90;;;;;;;15.98;79.26;101276.25;15782667;28;20407;-57
2021/09/13 03:50:45;;;;;;;1999.90;999.90;;;;;;;16.00;78.53;101282.34;15778818;28;20070;-59
2021/09/13 03:58:19;;;;;;;1999.90;999.90;;;;;;;16.00;78.66;101289.97;15770388;28;20052;-60
2021/09/13 04:05:55;;;;;;;1999.90;999.90;;;;;;;15.91;79.14;101290.09;15751189;28;20151;-59
2021/09/13 04:13:58;;;;;;;1999.90;999.90;;;;;;;15.84;78.69;101285.09;15771914;28;20513;-58
2021/09/13 04:21:37;;;;;;;1999.90;999.90;;;;;;;15.77;78.74;101293.31;15809434;28;20131;-59
2021/09/13 04:29:31;;;;;;;1999.90;999.90;;;;;;;15.74;78.54;101281.97;15761055;28;20065;-59
2021/09/13 04:37:41;;;;;;;1999.90;999.90;;;;;;;15.73;78.33;101292.38;15756644;28;20497;-57
2021/09/13 04:45:49;;;;;;;1999.90;999.90;;;;;;;15.68;79.14;101303.06;15764119;28;20048;-58
2021/09/13 04:53:48;;;;;;;1999.90;999.90;;;;;;;15.78;78.13;101294.13;15739781;28;20048;-59
2021/09/13 05:01:24;;;;;;;1999.90;999.90;;;;;;;15.84;78.44;101312.44;15747192;28;20519;-60
2021/09/13 05:08:57;;;;;;;1999.90;999.90;;;;;;;15.97;78.49;101307.59;15760428;28;20037;-59
2021/09/13 05:16:37;;;;;;;1999.90;999.90;;;;;;;16.11;78.77;101305.19;15765395;28;20162;-59
2021/09/13 05:24:09;;;;;;;1999.90;999.90;;;;;;;16.37;78.49;101302.75;15770898;28;20174;-60
2021/09/13 05:31:44;;;;;;;;;;;;;;;16.77;77.90;101315.97;15782850;28;20052;-60
2021/09/13 05:39:20;;;;;;;1999.90;999.90;;;;;;;16.96;77.79;101309.63;15750121;28;19920;-60
2021/09/13 05:46:57;;;;;;;1999.90;999.90;;;;;;;17.14;77.55;101313.75;15772963;28;20506;-59
2021/09/13 05:54:30;;;;;;;1999.90;999.90;;;;;;;17.22;76.98;101318.38;15732508;28;20512;-59
2021/09/13 06:02:06;;;;;;;1999.90;999.90;;;;;;;17.43;77.04;101312.47;15730806;28;20040;-58
2021/09/13 06:09:40;;;;;;;1999.90;999.90;;;;;;;17.53;76.20;101316.75;15715022;28;20144;-58
2021/09/13 06:17:14;;;;;;;1999.90;999.90;;;;;;;17.79;76.47;101319.81;15730646;28;20044;-61
2021/09/13 06:24:49;;;;;;;1999.90;999.90;;;;;;;18.09;75.90;101320.09;15766420;28;20070;-60
2021/09/13 06:32:24;;;;;;;1999.90;999.90;;;;;;;18.19;74.66;101335.63;15789694;28;20127;-60
2021/09/13 06:39:58;;;;;;;1999.90;999.90;;;;;;;18.43;74.51;101341.00;15774350;28;20410;-57
2021/09/13 06:47:44;;;;;;;1999.90;999.90;;;;;;;18.88;72.79;101339.53;15791574;28;20040;-57
2021/09/13 06:55:20;;;;;;;1999.90;999.90;;;;;;;19.24;72.24;101355.13;15807468;28;20513;-59
2021/09/13 07:02:59;;;;;;;1999.90;999.90;;;;;;;19.39;71.16;101352.56;15816608;28;20040;-56
2021/09/13 07:10:31;;;;;;;1999.90;999.90;;;;;;;19.75;69.79;101354.81;15806013;28;20044;-59
2021/09/13 07:18:05;;;;;;;1999.90;999.90;;;;;;;19.79;69.06;101360.50;15844967;28;20420;-57
2021/09/13 07:25:38;;;;;;;1999.90;999.90;;;;;;;20.75;68.76;101367.56;15809129;28;20040;-60
2021/09/13 07:33:11;;;;;;;1999.90;999.90;;;;;;;20.98;66.27;101370.25;15832272;28;20051;-60
2021/09/13 07:40:44;;;;;;;1999.90;999.90;;;;;;;20.32;66.67;101377.47;15802444;28;20429;-57
2021/09/13 07:48:19;;;;;;;1999.90;999.90;;;;;;;21.52;64.63;101392.31;15802376;28;20043;-60
2021/09/13 07:55:52;;;;;;;1999.90;999.90;;;;;;;21.23;64.00;101404.56;15813058;28;20105;-61
2021/09/13 08:03:26;;;;;;;1999.90;999.90;;;;;;;21.70;62.33;101403.03;15830753;28;20425;-59
2021/09/13 08:10:58;;;;;;;1999.90;999.90;;;;;;;21.94;63.01;101402.41;15784583;28;20074;-60
2021/09/13 08:18:33;;;;;;;1999.90;999.90;;;;;;;22.33;58.04;101410.41;15809717;28;20048;-61
2021/09/13 08:26:08;;;;;;;1999.90;999.90;;;;;;;21.90;57.33;101419.41;15821321;28;20036;-60
2021/09/13 08:33:44;;;;;;;1999.90;999.90;;;;;;;21.95;57.76;101423.91;15789143;28;20464;-58
2021/09/13 08:41:17;;;;;;;1999.90;999.90;;;;;;;22.33;58.56;101428.28;15783254;28;20043;-60
2021/09/13 08:48:54;;;;;;;1999.90;999.90;;;;;;;22.60;57.35;101439.38;15835469;28;20048;-58
2021/09/13 08:56:29;;;;;;;1999.90;999.90;;;;;;;23.51;55.89;101446.66;15850823;28;20377;-56
2021/09/13 09:04:04;;;;;;;1999.90;999.90;;;;;;;23.49;55.85;101440.56;15781326;28;20048;-58
2021/09/13 09:11:50;;;;;;;1999.90;999.90;;;;;;;22.94;56.55;101449.34;15821050;28;20051;-59
2021/09/13 09:19:28;;;;;;;1999.90;999.90;;;;;;;24.49;54.34;101463.41;15838486;28;20042;-58
2021/09/13 09:27:05;;;;;;;1999.90;999.90;;;;;;;24.39;53.24;101462.19;15895806;27;20135;-57
2021/09/13 09:34:39;;;;;;;1999.90;999.90;;;;;;;24.39;53.36;101469.94;15915495;27;20067;-55
2021/09/13 09:42:13;;;;;;;1999.90;999.90;;;;;;;24.40;52.33;101465.88;15860474;27;20097;-58
2021/09/13 09:49:51;;;;;;;1999.90;999.90;;;;;;;24.10;53.61;101466.28;15916943;27;20049;-58
2021/09/13 09:57:23;;;;;;;1999.90;999.90;;;;;;;25.37;51.27;101480.63;15892948;27;20047;-58
2021/09/13 10:04:57;;;;;;;1999.90;999.90;;;;;;;24.97;54.40;101474.25;15858677;28;20054;-58
2021/09/13 10:12:30;;;;;;;1999.90;999.90;;;;;;;23.34;57.52;101475.91;15856042;28;20094;-58
2021/09/13 10:20:07;;;;;;;1999.90;999.90;;;;;;;23.76;56.82;101485.78;15874524;28;20039;-58
2021/09/13 10:27:41;;;;;;;1999.90;999.90;;;;;;;24.14;55.91;101485.00;15874426;27;20043;-59
2021/09/13 10:35:17;;;;;;;1999.90;999.90;;;;;;;23.40;57.53;101480.00;15879405;27;20054;-57
2021/09/13 10:42:51;;;;;;;1999.90;999.90;;;;;;;22.92;58.35;101485.91;15913390;27;20103;-59
2021/09/13 10:50:27;;;;;;;1999.90;999.90;;;;;;;22.93;58.75;101481.06;15902003;27;20126;-57
2021/09/13 10:58:03;;;;;;;1999.90;999.90;;;;;;;24.58;53.85;101483.72;15870473;28;20112;-57
2021/09/13 11:05:37;;;;;;;1999.90;999.90;;;;;;;23.46;57.08;101475.53;15892718;27;20071;-58
2021/09/13 11:13:10;;;;;;;1999.90;999.90;;;;;;;22.64;59.87;101472.34;15870000;28;20048;-59
2021/09/13 11:20:44;;;;;;;1999.90;999.90;;;;;;;22.68;59.96;101478.84;15867056;27;20044;-56
2021/09/13 11:28:17;;;;;;;1999.90;999.90;;;;;;;23.23;60.74;101481.56;15867510;28;20047;-58
2021/09/13 11:35:56;;;;;;;1999.90;999.90;;;;;;;22.88;59.81;101487.13;15867669;28;20043;-59
2021/09/13 11:43:28;;;;;;;1999.90;999.90;;;;;;;22.52;62.08;101486.09;15866907;28;20042;-58
2021/09/13 11:51:03;;;;;;;1999.90;999.90;;;;;;;22.23;62.08;101499.28;15866648;28;20077;-58
2021/09/13 11:58:44;;;;;;;1999.90;999.90;;;;;;;22.31;62.01;101500.97;15882328;27;20040;-59
2021/09/13 12:06:19;;;;;;;1999.90;999.90;;;;;;;23.51;59.59;101491.41;15868476;27;20047;-58
2021/09/13 12:13:52;;;;;;;1999.90;999.90;;;;;;;25.74;54.33;101492.25;15849710;27;20059;-59
2021/09/13 12:21:26;;;;;;;1999.90;999.90;;;;;;;24.94;54.18;101501.59;15893742;27;20082;-59
2021/09/13 12:29:08;;;;;;;1999.90;999.90;;;;;;;24.95;53.50;101493.84;15888071;27;20475;-59
2021/09/13 12:36:42;;;;;;;1999.90;999.90;;;;;;;24.71;54.37;101489.84;15852309;28;20036;-58
2021/09/13 12:44:17;;;;;;;1999.90;999.90;;;;;;;24.52;55.54;101476.84;15855092;27;20059;-56
2021/09/13 12:51:59;;;;;;;1999.90;999.90;;;;;;;25.06;53.93;101479.53;15872331;27;20098;-58
2021/09/13 12:59:31;;;;;;;1999.90;999.90;;;;;;;25.39;52.62;101478.16;15868544;28;20131;-59
2021/09/13 13:07:07;;;;;;;1999.90;999.90;;;;;;;24.66;54.64;101467.41;15892596;28;20044;-59
2021/09/13 13:14:40;;;;;;;1999.90;999.90;;;;;;;24.77;55.81;101456.78;15846622;28;20081;-59
2021/09/13 13:22:16;;;;;;;1999.90;999.90;;;;;;;24.03;54.11;101449.97;15882638;28;20122;-58
2021/09/13 13:29:49;;;;;;;1999.90;999.90;;;;;;;23.95;55.82;101445.50;15865964;28;20063;-59
2021/09/13 13:37:23;;;;;;;1999.90;999.90;;;;;;;24.10;55.02;101449.97;15873439;28;20044;-58
2021/09/13 13:44:58;;;;;;;1999.90;999.90;;;;;;;23.84;55.43;101447.53;15861807;28;20035;-61
2021/09/13 13:52:32;;;;;;;1999.90;999.90;;;;;;;24.07;55.73;101439.41;15889934;28;20048;-58
2021/09/13 14:00:06;;;;;;;1999.90;999.90;;;;;;;24.54;53.43;101440.16;15823488;28;20049;-60
2021/09/13 14:07:48;;;;;;;1999.90;999.90;;;;;;;24.52;53.17;101433.22;15858999;28;20093;-59
2021/09/13 14:15:22;;;;;;;1999.90;999.90;;;;;;;24.18;54.74;101437.34;15852109;28;20044;-56
2021/09/13 14:22:56;;;;;;;1999.90;999.90;;;;;;;23.93;55.88;101432.88;15856332;28;20048;-57
2021/09/13 14:30:28;;;;;;;1999.90;999.90;;;;;;;24.03;55.49;101444.28;15872890;28;20036;-56
2021/09/13 14:38:04;;;;;;;1999.90;999.90;;;;;;;23.69;54.85;101431.66;15811658;28;20567;-57
2021/09/13 14:45:36;;;;;;;1999.90;999.90;;;;;;;23.36;55.28;101436.47;15834162;28;20043;-58
2021/09/13 14:53:10;;;;;;;1999.90;999.90;;;;;;;23.05;56.20;101438.00;15814345;28;20043;-58
2021/09/13 15:00:43;;;;;;;1999.90;999.90;;;;;;;23.27;55.01;101430.34;15864244;28;20046;-58
2021/09/13 15:08:17;;;;;;;1999.90;999.90;;;;;;;23.04;57.42;101433.53;15831947;27;20104;-59
2021/09/13 15:15:49;;;;;;;1999.90;999.90;;;;;;;22.74;58.34;101430.94;15850316;28;20101;-59
2021/09/13 15:23:24;;;;;;;1999.90;999.90;;;;;;;22.52;57.68;101429.22;15864117;28;20464;-57
2021/09/13 15:30:56;;;;;;;1999.90;999.90;;;;;;;22.23;59.68;101417.66;15870947;27;20127;-59
2021/09/13 15:38:30;;;;;;;1999.90;999.90;;;;;;;22.07;59.24;101419.97;15871963;27;20036;-60
2021/09/13 15:46:03;;;;;;;1999.90;999.90;;;;;;;21.99;61.00;101413.41;15879831;27;20539;-64
2021/09/13 15:53:36;;;;;;;1999.90;999.90;;;;;;;22.16;58.39;101404.19;15871100;27;20085;-60
2021/09/13 16:01:09;;;;;;;1999.90;999.90;;;;;;;22.18;58.61;101404.63;15870931;27;20046;-59
2021/09/13 16:08:43;;;;;;;1999.90;999.90;;;;;;;21.98;58.88;101399.56;15860792;27;20159;-59
2021/09/13 16:16:16;;;;;;;1999.90;999.90;;;;;;;21.85;59.40;101408.41;15866760;27;20138;-61
2021/09/13 16:23:50;;;;;;;1999.90;999.90;;;;;;;21.57;61.17;101408.16;15878433;27;20562;-61
2021/09/13 16:31:22;;;;;;;1999.90;999.90;;;;;;;21.55;62.49;101407.75;15872325;27;20057;-60
2021/09/13 16:38:56;;;;;;;1999.90;999.90;;;;;;;21.51;62.79;101407.72;15863017;28;20488;-58
2021/09/13 16:46:28;;;;;;;1999.90;999.90;;;;;;;21.35;63.55;101415.66;15859911;28;20439;-59
2021/09/13 16:54:02;;;;;;;1999.90;999.90;;;;;;;21.41;64.20;101405.59;15847297;27;20447;-58
2021/09/13 17:01:34;;;;;;;1999.90;999.90;;;;;;;21.27;65.22;101417.63;15842466;28;20040;-58
2021/09/13 17:09:10;;;;;;;1999.90;999.90;;;;;;;20.99;65.26;101431.47;15826880;28;20044;-60
2021/09/13 17:16:43;;;;;;;1999.90;999.90;;;;;;;20.57;66.02;101429.72;15820597;28;20366;-60
2021/09/13 17:24:17;;;;;;;1999.90;999.90;;;;;;;20.34;67.10;101437.44;15816197;28;20516;-61
2021/09/13 17:31:50;;;;;;;1999.90;999.90;;;;;;;20.08;67.61;101436.25;15777568;28;20382;-59
2021/09/13 17:39:24;;;;;;;1999.90;999.90;;;;;;;19.95;68.19;101431.19;15814162;28;20036;-58
2021/09/13 17:46:56;;;;;;;1999.90;999.90;;;;;;;19.72;69.12;101442.53;15863236;28;20124;-59
2021/09/13 17:54:34;;;;;;;1999.90;999.90;;;;;;;19.66;69.25;101439.19;15875887;28;20119;-60
2021/09/13 18:02:07;;;;;;;1999.90;999.90;;;;;;;19.45;69.80;101445.25;15874023;28;20566;-59
2021/09/13 18:09:41;;;;;;;1999.90;999.90;;;;;;;19.25;70.05;101450.13;15852911;28;20055;-60
2021/09/13 18:17:13;;;;;;;1999.90;999.90;;;;;;;19.08;70.74;101453.44;15817886;28;20036;-59
2021/09/13 18:24:48;;;;;;;1999.90;999.90;;;;;;;18.94;71.30;101467.28;15851863;28;20050;-58
2021/09/13 18:32:20;;;;;;;1999.90;999.90;;;;;;;18.78;71.61;101461.69;15817742;28;20110;-59
2021/09/13 18:39:54;;;;;;;1999.90;999.90;;;;;;;18.67;71.82;101463.47;15845828;28;20145;-60
2021/09/13 18:47:27;;;;;;;1999.90;999.90;;;;;;;18.53;72.37;101457.47;15849838;28;20076;-57
2021/09/13 18:55:04;;;;;;;1999.90;999.90;;;;;;;18.43;73.25;101462.50;15830170;28;20127;-60
2021/09/13 19:02:37;;;;;;;1999.90;999.90;;;;;;;18.24;73.36;101453.19;15842344;28;20036;-56
2021/09/13 19:10:12;;;;;;;1999.90;999.90;;;;;;;18.14;73.53;101455.38;15847301;27;20548;-59
2021/09/13 19:17:46;;;;;;;1999.90;999.90;;;;;;;18.01;73.74;101459.47;15842816;28;20377;-58
2021/09/13 19:25:20;;;;;;;1999.90;999.90;;;;;;;17.97;73.68;101467.06;15853952;28;20051;-57
2021/09/13 19:32:53;;;;;;;1999.90;999.90;;;;;;;17.79;74.33;101477.88;15851331;28;20097;-57
2021/09/13 19:40:27;;;;;;;1999.90;999.90;;;;;;;17.70;74.06;101482.88;15869679;28;20128;-58
2021/09/13 19:48:00;;;;;;;1999.90;999.90;;;;;;;17.56;74.06;101482.47;15869574;28;20469;-59
2021/09/13 19:55:33;;;;;;;1999.90;999.90;;;;;;;17.50;73.82;101481.09;15868937;28;20083;-58
2021/09/13 20:03:06;;;;;;;1999.90;999.90;;;;;;;17.31;74.57;101487.47;15871338;28;20126;-58
2021/09/13 20:10:40;;;;;;;1999.90;999.90;;;;;;;17.31;74.81;101479.81;15845499;28;20098;-59
2021/09/13 20:18:12;;;;;;;1999.90;999.90;;;;;;;17.10;75.75;101482.03;15849570;28;20048;-59
2021/09/13 20:25:47;;;;;;;1999.90;999.90;;;;;;;17.00;75.07;101488.19;15866998;28;20036;-59
2021/09/13 20:33:20;;;;;;;1999.90;999.90;;;;;;;16.91;75.45;101473.41;15836566;28;20048;-61
2021/09/13 20:40:53;;;;;;;1999.90;999.90;;;;;;;16.95;75.30;101460.22;15822270;28;20048;-58
2021/09/13 20:48:26;;;;;;;1999.90;999.90;;;;;;;16.79;75.51;101476.28;15811860;28;20456;-57
2021/09/13 20:56:02;;;;;;;1999.90;999.90;;;;;;;16.68;75.26;101479.59;15791404;28;20401;-58
2021/09/13 21:03:34;;;;;;;1999.90;999.90;;;;;;;16.54;74.99;101490.38;15863885;28;20127;-56
2021/09/13 21:11:09;;;;;;;1999.90;999.90;;;;;;;16.53;74.56;101499.19;15825380;28;20040;-57
2021/09/13 21:18:42;;;;;;;1999.90;999.90;;;;;;;16.40;74.68;101492.75;15846770;28;20046;-57
2021/09/13 21:26:17;;;;;;;1999.90;999.90;;;;;;;16.33;74.82;101500.97;15856124;28;20039;-58
2021/09/13 21:33:50;;;;;;;1999.90;999.90;;;;;;;16.21;75.47;101504.59;15846442;28;20079;-58
2021/09/13 21:41:24;;;;;;;1999.90;999.90;;;;;;;16.19;75.65;101501.34;15817570;28;20071;-59
2021/09/13 21:48:56;;;;;;;1999.90;999.90;;;;;;;15.96;76.37;101500.97;15836888;28;20126;-59
2021/09/13 21:56:30;;;;;;;1999.90;999.90;;;;;;;15.99;75.68;101502.25;15805371;28;20065;-59
2021/09/13 22:04:03;;;;;;;1999.90;999.90;;;;;;;15.95;75.63;101515.41;15814143;28;20606;-58
2021/09/13 22:11:36;;;;;;;1999.90;999.90;;;;;;;15.81;75.23;101519.34;15831960;28;20047;-57
2021/09/13 22:28:21;;;;;;;1999.90;999.90;;;;;;;15.57;76.05;101516.47;15849751;28;20524;-59
2021/09/13 22:35:53;;;;;;;1999.90;999.90;;;;;;;15.55;75.73;101516.81;15843025;28;20090;-59
2021/09/13 22:43:27;;;;;;;1999.90;999.90;;;;;;;15.46;75.70;101532.16;15836614;28;20089;-59
2021/09/13 22:50:59;;;;;;;1999.90;999.90;;;;;;;15.41;76.15;101527.53;15852319;28;20048;-57
2021/09/13 22:58:33;;;;;;;1999.90;999.90;;;;;;;15.42;75.88;101526.38;15834300;28;20044;-59
2021/09/13 23:06:06;;;;;;;1999.90;999.90;;;;;;;15.36;75.73;101524.97;15836272;28;20036;-57
2021/09/13 23:13:41;;;;;;;1999.90;999.90;;;;;;;15.36;75.68;101530.59;15839876;28;20046;-57
2021/09/13 23:21:13;;;;;;;1999.90;999.90;;;;;;;15.24;75.71;101530.53;15853954;28;20054;-60
2021/09/13 23:28:47;;;;;;;1999.90;999.90;;;;;;;15.22;75.30;101530.88;15869136;28;20104;-59
2021/09/13 23:36:20;;;;;;;1999.90;999.90;;;;;;;15.09;75.68;101525.53;15868050;28;20069;-59
2021/09/13 23:43:54;;;;;;;1999.90;999.90;;;;;;;15.02;75.54;101523.31;15868530;28;20047;-58
2021/09/13 23:51:27;;;;;;;1999.90;999.90;;;;;;;14.95;75.55;101526.66;15825607;28;20757;-57
2021/09/13 23:59:00;;;;;;;1999.90;999.90;;;;;;;15.02;76.02;101523.31;15839172;28;20103;-58
